createdAt,value
2023-07-03T00:01:18.262Z,3.30
2023-07-03T00:03:44.809Z,3.78
2023-07-03T00:06:11.546Z,4.22
2023-07-03T00:08:38.057Z,3.80
2023-07-03T00:11:06.164Z,3.45
2023-07-03T00:13:32.975Z,3.25
2023-07-03T00:16:01.370Z,3.92
2023-07-03T00:18:29.711Z,3.95
2023-07-03T00:20:56.905Z,3.67
2023-07-03T00:23:24.963Z,3.50
2023-07-03T00:25:52.541Z,3.70
2023-07-03T00:28:19.859Z,3.55
2023-07-03T00:30:46.617Z,3.22
2023-07-03T00:33:13.539Z,3.63
2023-07-03T00:35:40.534Z,3.40
2023-07-03T00:38:07.744Z,3.42
2023-07-03T00:40:34.511Z,3.55
2023-07-03T00:43:01.941Z,3.42
2023-07-03T00:45:28.701Z,3.73
2023-07-03T00:47:55.680Z,3.13
2023-07-03T00:50:22.573Z,3.75
2023-07-03T00:52:57.962Z,3.25
2023-07-03T00:55:24.430Z,3.83
2023-07-03T00:57:51.608Z,4.07
2023-07-03T01:00:19.713Z,3.40
2023-07-03T01:03:06.772Z,3.03
2023-07-03T01:05:41.186Z,3.10
2023-07-03T01:08:07.747Z,3.83
2023-07-03T01:10:34.651Z,4.03
2023-07-03T01:13:06.200Z,3.65
2023-07-03T01:15:37.867Z,3.60
2023-07-03T01:18:07.428Z,4.00
2023-07-03T01:20:40.532Z,3.53
2023-07-03T01:23:27.751Z,3.70
2023-07-03T01:25:56.448Z,3.83
2023-07-03T01:28:25.009Z,3.60
2023-07-03T01:30:54.238Z,3.65
2023-07-03T01:33:26.352Z,3.95
2023-07-03T01:35:55.080Z,3.27
2023-07-03T01:38:22.747Z,4.20
2023-07-03T01:40:49.581Z,3.83
2023-07-03T01:43:16.344Z,3.75
2023-07-03T01:45:48.454Z,3.30
2023-07-03T01:48:16.633Z,4.10
2023-07-03T01:50:45.551Z,3.92
2023-07-03T01:53:33.655Z,4.55
2023-07-03T01:56:10.571Z,4.10
2023-07-03T01:58:47.544Z,3.78
2023-07-03T02:01:21.676Z,3.30
2023-07-03T02:03:55.155Z,4.28
2023-07-03T02:06:29.295Z,4.60
2023-07-03T02:08:56.644Z,4.15
2023-07-03T02:11:24.632Z,4.03
2023-07-03T02:13:51.141Z,3.63
2023-07-03T02:16:17.662Z,3.67
2023-07-03T02:18:44.742Z,3.60
2023-07-03T02:21:11.248Z,3.08
2023-07-03T02:23:37.697Z,3.47
2023-07-03T02:26:04.225Z,3.13
2023-07-03T02:28:30.742Z,2.78
2023-07-03T02:30:57.463Z,2.72
2023-07-03T02:33:24.072Z,2.63
2023-07-03T02:35:50.653Z,2.90
2023-07-03T02:38:17.437Z,2.30
2023-07-03T02:40:45.265Z,2.60
2023-07-03T02:43:11.688Z,1.85
2023-07-03T02:45:41.717Z,2.15
2023-07-03T02:48:10.302Z,2.05
2023-07-03T02:50:36.775Z,1.63
2023-07-03T02:53:03.478Z,1.73
2023-07-03T02:55:29.933Z,1.80
2023-07-03T02:57:56.773Z,1.75
2023-07-03T03:00:23.228Z,1.73
2023-07-03T03:02:49.812Z,1.60
2023-07-03T03:05:16.586Z,1.55
2023-07-03T03:07:43.087Z,1.52
2023-07-03T03:10:10.258Z,1.60
2023-07-03T03:12:36.734Z,1.60
2023-07-03T03:15:06.520Z,1.53
2023-07-03T03:17:33.102Z,1.40
2023-07-03T03:20:00.246Z,1.40
2023-07-03T03:22:26.856Z,1.60
2023-07-03T03:24:53.377Z,1.50
2023-07-03T03:27:19.830Z,1.57
2023-07-03T03:29:47.195Z,1.55
2023-07-03T03:32:13.680Z,1.40
2023-07-03T03:34:40.185Z,1.50
2023-07-03T03:37:06.739Z,1.75
2023-07-03T03:39:33.168Z,1.50
2023-07-03T03:41:59.664Z,1.50
2023-07-03T03:44:26.376Z,1.60
2023-07-03T03:46:54.037Z,1.30
2023-07-03T03:49:20.949Z,1.50
2023-07-03T03:51:47.386Z,1.50
2023-07-03T03:54:13.871Z,1.30
2023-07-03T03:56:40.303Z,1.40
2023-07-03T03:59:06.729Z,1.77
2023-07-03T04:01:34.381Z,1.27
2023-07-03T04:04:01.483Z,1.30
2023-07-03T04:06:28.224Z,1.40
2023-07-03T04:08:54.764Z,1.33
2023-07-03T04:11:21.421Z,1.58
2023-07-03T04:13:48.012Z,1.35
2023-07-03T04:16:14.731Z,1.50
2023-07-03T04:18:41.932Z,1.67
2023-07-03T04:21:08.545Z,1.50
2023-07-03T04:23:35.009Z,1.60
2023-07-03T04:26:03.754Z,1.30
2023-07-03T04:28:30.397Z,1.53
2023-07-03T04:30:56.841Z,1.63
2023-07-03T04:33:23.333Z,1.40
2023-07-03T04:35:50.203Z,1.30
2023-07-03T04:38:20.179Z,1.92
2023-07-03T04:40:46.917Z,1.53
2023-07-03T04:43:13.578Z,1.50
2023-07-03T04:45:45.566Z,1.40
2023-07-03T04:48:12.597Z,1.35
2023-07-03T04:50:39.037Z,2.05
2023-07-03T04:53:05.533Z,1.63
2023-07-03T04:55:34.173Z,1.58
2023-07-03T04:58:03.085Z,1.90
2023-07-03T05:00:29.544Z,1.58
2023-07-03T05:03:00.668Z,1.48
2023-07-03T05:05:27.919Z,1.47
2023-07-03T05:07:56.455Z,1.75
2023-07-03T05:10:25.546Z,1.80
2023-07-03T05:12:52.551Z,1.90
2023-07-03T05:15:20.905Z,1.98
2023-07-03T05:17:51.969Z,1.80
2023-07-03T05:20:20.055Z,1.50
2023-07-03T05:22:46.570Z,1.50
2023-07-03T05:25:14.516Z,1.50
2023-07-03T05:27:41.148Z,1.50
2023-07-03T05:30:09.052Z,1.60
2023-07-03T05:32:35.913Z,1.90
2023-07-03T05:35:04.538Z,1.70
2023-07-03T05:37:31.836Z,1.60
2023-07-03T05:39:58.719Z,1.80
2023-07-03T05:42:25.582Z,1.73
2023-07-03T05:44:52.092Z,2.22
2023-07-03T05:47:18.948Z,1.42
2023-07-03T05:49:45.467Z,1.75
2023-07-03T05:52:12.614Z,1.60
2023-07-03T05:54:39.423Z,1.70
2023-07-03T05:57:08.580Z,1.80
2023-07-03T05:59:36.478Z,1.33
2023-07-03T06:02:05.744Z,1.50
2023-07-03T06:04:34.283Z,1.60
2023-07-03T06:07:01.960Z,1.90
2023-07-03T06:09:29.617Z,1.40
2023-07-03T06:11:59.995Z,1.38
2023-07-03T06:14:29.160Z,1.70
2023-07-03T06:16:56.221Z,1.30
2023-07-03T06:19:22.738Z,1.83
2023-07-03T06:21:49.301Z,1.70
2023-07-03T06:24:16.481Z,1.98
2023-07-03T06:26:44.632Z,1.50
2023-07-03T06:29:14.128Z,1.48
2023-07-03T06:31:41.543Z,1.60
2023-07-03T06:34:08.367Z,1.70
2023-07-03T06:36:36.006Z,1.60
2023-07-03T06:39:06.060Z,1.42
2023-07-03T06:41:35.137Z,1.45
2023-07-03T06:44:02.579Z,1.27
2023-07-03T06:46:29.207Z,1.50
2023-07-03T06:48:56.812Z,1.40
2023-07-03T06:51:23.710Z,1.75
2023-07-03T06:53:50.190Z,1.60
2023-07-03T06:56:16.692Z,1.83
2023-07-03T06:58:43.407Z,1.90
2023-07-03T07:01:12.732Z,1.35
2023-07-03T07:03:40.239Z,1.40
2023-07-03T07:06:18.017Z,1.70
2023-07-03T07:08:45.474Z,1.90
2023-07-03T07:11:14.460Z,1.50
2023-07-03T07:13:43.625Z,1.60
2023-07-03T07:16:33.707Z,1.60
2023-07-03T07:19:04.355Z,1.30
2023-07-03T07:21:33.451Z,1.57
2023-07-03T07:24:03.346Z,1.67
2023-07-03T07:26:34.990Z,1.55
2023-07-03T07:29:02.156Z,1.50
2023-07-03T07:31:29.464Z,1.45
2023-07-03T07:33:56.776Z,1.47
2023-07-03T07:36:25.205Z,1.75
2023-07-03T07:38:56.394Z,1.50
2023-07-03T07:41:25.995Z,1.65
2023-07-03T07:43:54.027Z,1.48
2023-07-03T07:46:21.461Z,1.80
2023-07-03T07:48:48.562Z,1.45
2023-07-03T07:51:15.339Z,1.98
2023-07-03T07:53:41.859Z,1.73
2023-07-03T07:56:09.812Z,1.70
2023-07-03T07:58:36.968Z,1.63
2023-07-03T08:01:04.433Z,1.50
2023-07-03T08:03:31.155Z,1.60
2023-07-03T08:06:02.766Z,1.90
2023-07-03T08:08:31.830Z,1.92
2023-07-03T08:11:00.796Z,1.57
2023-07-03T08:13:29.702Z,1.60
2023-07-03T08:15:56.176Z,1.50
2023-07-03T08:18:24.792Z,1.67
2023-07-03T08:20:51.862Z,1.30
2023-07-03T08:23:18.538Z,1.63
2023-07-03T08:25:49.695Z,1.70
2023-07-03T08:28:16.468Z,1.60
2023-07-03T08:30:43.268Z,1.30
2023-07-03T08:33:09.905Z,1.40
2023-07-03T08:38:05.724Z,1.50
2023-07-03T08:40:32.716Z,1.58
2023-07-03T08:43:01.710Z,1.63
2023-07-03T08:45:47.761Z,1.50
2023-07-03T08:48:23.433Z,1.93
2023-07-03T08:50:55.095Z,1.40
2023-07-03T08:53:27.575Z,1.38
2023-07-03T08:56:16.054Z,1.20
2023-07-03T08:58:42.845Z,1.40
2023-07-03T09:01:21.977Z,1.40
2023-07-03T09:04:22.426Z,1.70
2023-07-03T09:06:52.129Z,1.40
2023-07-03T09:09:38.283Z,1.40
2023-07-03T09:12:14.729Z,1.25
2023-07-03T09:14:46.627Z,1.57
2023-07-03T09:17:14.286Z,1.30
2023-07-03T09:19:46.003Z,1.50
2023-07-03T09:22:28.744Z,1.50
2023-07-03T09:24:59.694Z,1.48
2023-07-03T09:27:28.527Z,1.40
2023-07-03T09:30:04.922Z,1.58
2023-07-03T09:32:32.866Z,1.30
2023-07-03T09:35:16.925Z,1.73
2023-07-03T09:37:52.933Z,1.48
2023-07-03T09:40:27.164Z,1.60
2023-07-03T09:42:54.519Z,1.45
2023-07-03T09:45:23.827Z,1.70
2023-07-03T09:47:54.649Z,1.50
2023-07-03T09:50:32.433Z,1.50
2023-07-03T09:53:08.143Z,1.53
2023-07-03T09:55:36.349Z,1.38
2023-07-03T09:58:12.317Z,1.30
2023-07-03T10:00:49.175Z,1.27
2023-07-03T10:08:50.445Z,1.83
2023-07-03T10:11:26.813Z,1.80
2023-07-03T10:13:53.973Z,1.73
2023-07-03T10:16:23.647Z,1.95
2023-07-03T10:18:54.365Z,2.00
2023-07-03T10:21:22.846Z,1.95
2023-07-03T10:23:50.832Z,1.80
2023-07-03T10:26:49.019Z,1.90
2023-07-03T10:29:27.344Z,1.90
2023-07-03T10:32:00.575Z,1.70
2023-07-03T10:34:38.386Z,1.80
2023-07-03T10:37:07.284Z,1.55
2023-07-03T10:39:50.103Z,1.90
2023-07-03T10:42:23.237Z,2.00
2023-07-03T10:44:57.128Z,1.87
2023-07-03T10:47:31.756Z,2.00
2023-07-03T10:49:58.404Z,1.77
2023-07-03T10:52:37.120Z,2.00
2023-07-03T10:55:11.266Z,1.80
2023-07-03T10:58:03.968Z,1.93
2023-07-03T11:00:59.172Z,1.90
2023-07-03T11:04:15.643Z,1.73
2023-07-03T11:07:05.871Z,1.65
2023-07-03T11:09:53.621Z,1.80
2023-07-03T11:12:43.776Z,1.80
2023-07-03T11:15:51.780Z,2.05
2023-07-03T11:24:32.709Z,1.65
2023-07-03T11:29:54.437Z,1.70
2023-07-03T11:32:21.602Z,1.63
2023-07-03T11:40:30.762Z,1.50
2023-07-03T11:45:39.001Z,1.70
2023-07-03T11:48:19.484Z,1.48
2023-07-03T11:50:57.090Z,1.70
2023-07-03T11:53:45.242Z,2.00
2023-07-03T11:56:14.847Z,1.85
2023-07-03T11:58:44.651Z,1.65
2023-07-03T12:01:26.888Z,1.85
2023-07-03T12:03:58.857Z,1.42
2023-07-03T12:06:40.460Z,1.20
2023-07-03T12:09:19.965Z,1.52
2023-07-03T12:12:01.654Z,1.08
2023-07-03T12:14:40.310Z,1.10
2023-07-03T12:17:19.648Z,1.23
2023-07-03T12:19:47.622Z,1.40
2023-07-03T12:22:21.446Z,1.35
2023-07-03T12:24:48.049Z,1.10
2023-07-03T12:27:15.582Z,1.30
2023-07-03T12:29:48.178Z,1.58
2023-07-03T12:32:27.942Z,1.20
2023-07-03T12:34:54.953Z,1.92
2023-07-03T12:37:25.197Z,1.25
2023-07-03T12:39:52.894Z,1.15
2023-07-03T12:42:25.782Z,1.13
2023-07-03T12:44:53.594Z,1.23
2023-07-03T12:47:21.844Z,1.20
2023-07-03T12:49:56.569Z,0.90
2023-07-03T12:52:25.102Z,1.05
2023-07-03T12:54:58.613Z,1.15
2023-07-03T12:57:35.540Z,1.17
2023-07-03T13:00:03.080Z,1.38
2023-07-03T13:02:32.298Z,1.38
2023-07-03T13:05:02.357Z,1.42
2023-07-03T13:07:29.810Z,1.20
2023-07-03T13:09:58.647Z,1.40
2023-07-03T13:12:27.689Z,1.52
2023-07-03T13:15:08.335Z,1.45
2023-07-03T13:17:38.459Z,1.45
2023-07-03T13:20:27.834Z,1.73
2023-07-03T13:23:07.127Z,1.50
2023-07-03T13:25:37.520Z,1.50
2023-07-03T13:28:25.984Z,1.70
2023-07-03T13:31:04.582Z,1.60
2023-07-03T13:33:31.251Z,1.42
2023-07-03T13:35:57.737Z,1.40
2023-07-03T13:38:24.154Z,1.40
2023-07-03T13:40:52.941Z,1.27
2023-07-03T13:43:25.311Z,1.63
2023-07-03T13:45:53.737Z,1.55
2023-07-03T13:48:20.260Z,1.33
2023-07-03T13:50:50.432Z,1.30
2023-07-03T13:53:17.180Z,1.38
2023-07-03T13:55:43.631Z,1.27
2023-07-03T13:58:12.038Z,1.50
2023-07-03T14:00:38.510Z,1.50
2023-07-03T14:03:05.389Z,1.35
2023-07-03T14:05:31.895Z,1.40
2023-07-03T14:07:58.924Z,1.40
2023-07-03T14:10:25.799Z,1.60
2023-07-03T14:12:53.690Z,1.43
2023-07-03T14:15:26.733Z,1.60
2023-07-03T14:17:54.316Z,1.30
2023-07-03T14:20:21.710Z,1.40
2023-07-03T14:22:49.561Z,1.20
2023-07-03T14:25:17.461Z,1.60
2023-07-03T14:27:44.102Z,1.92
2023-07-03T14:30:12.450Z,1.50
2023-07-03T14:32:51.455Z,1.23
2023-07-03T14:35:21.865Z,1.38
2023-07-03T14:37:48.410Z,1.20
2023-07-03T14:40:16.768Z,1.73
2023-07-03T14:42:44.715Z,1.60
2023-07-03T14:45:11.366Z,1.88
2023-07-03T14:47:38.005Z,1.63
2023-07-03T14:50:05.288Z,1.80
2023-07-03T14:52:50.400Z,1.70
2023-07-03T14:55:18.059Z,1.73
2023-07-03T14:57:46.262Z,1.42
2023-07-03T15:00:13.597Z,1.70
2023-07-03T15:02:41.891Z,1.80
2023-07-03T15:05:10.256Z,1.63
2023-07-03T15:07:36.965Z,1.60
2023-07-03T15:10:06.465Z,1.80
2023-07-03T15:12:32.985Z,1.60
2023-07-03T15:14:59.411Z,1.60
2023-07-03T15:17:26.029Z,1.48
2023-07-03T15:19:54.426Z,1.77
2023-07-03T15:22:20.973Z,1.63
2023-07-03T15:24:50.640Z,1.73
2023-07-03T15:27:17.183Z,1.70
2023-07-03T15:29:43.655Z,1.88
2023-07-03T15:32:10.100Z,1.92
2023-07-03T15:34:36.555Z,1.80
2023-07-03T15:37:03.120Z,1.90
2023-07-03T15:39:30.049Z,1.93
2023-07-03T15:41:56.476Z,1.70
2023-07-03T15:44:22.912Z,1.80
2023-07-03T15:46:49.487Z,1.90
2023-07-03T15:49:15.976Z,1.67
2023-07-03T15:51:45.443Z,1.90
2023-07-03T15:54:11.893Z,1.67
2023-07-03T15:56:38.353Z,1.80
2023-07-03T15:59:05.387Z,1.92
2023-07-03T16:01:31.898Z,1.80
2023-07-03T16:04:02.039Z,1.70
2023-07-03T16:06:34.258Z,2.20
2023-07-03T16:09:00.931Z,1.80
2023-07-03T16:11:27.763Z,1.80
2023-07-03T16:13:54.687Z,1.70
2023-07-03T16:16:23.709Z,1.43
2023-07-03T16:18:54.360Z,1.90
2023-07-03T16:21:23.319Z,2.15
2023-07-03T16:23:53.367Z,2.03
2023-07-03T16:26:20.714Z,1.70
2023-07-03T16:28:47.585Z,2.20
2023-07-03T16:31:16.949Z,2.00
2023-07-03T16:33:45.859Z,2.00
2023-07-03T16:36:15.009Z,2.17
2023-07-03T16:38:47.906Z,2.13
2023-07-03T16:41:15.329Z,2.20
2023-07-03T16:43:44.639Z,2.00
2023-07-03T16:46:14.400Z,2.20
2023-07-03T16:48:41.087Z,2.00
2023-07-03T16:51:09.042Z,2.20
2023-07-03T16:53:38.088Z,2.47
2023-07-03T16:56:07.084Z,2.60
2023-07-03T16:58:34.578Z,1.80
2023-07-03T17:01:09.158Z,2.40
2023-07-03T17:03:36.477Z,2.35
2023-07-03T17:06:04.975Z,2.30
2023-07-03T17:08:31.588Z,2.10
2023-07-03T17:10:59.146Z,2.58
2023-07-03T17:13:25.609Z,4.28
2023-07-03T17:15:52.371Z,2.20
2023-07-03T17:18:19.330Z,2.60
2023-07-03T17:20:45.773Z,3.67
2023-07-03T17:23:12.975Z,2.92
2023-07-03T17:25:40.078Z,2.88
2023-07-03T17:28:06.983Z,6.78
2023-07-03T17:30:33.714Z,15.43
2023-07-03T17:33:00.197Z,4.60
2023-07-03T17:35:26.809Z,12.02
2023-07-03T17:37:53.491Z,15.75
2023-07-03T17:40:19.951Z,22.83
2023-07-03T17:42:46.423Z,5.67
2023-07-03T17:45:12.849Z,9.57
2023-07-03T17:47:39.537Z,9.18
2023-07-03T17:50:06.796Z,10.02
2023-07-03T17:52:33.235Z,4.88
2023-07-03T17:54:59.728Z,5.17
2023-07-03T17:57:26.210Z,7.45
2023-07-03T17:59:52.868Z,6.50
2023-07-03T18:02:19.359Z,5.07
2023-07-03T18:04:45.817Z,5.65
2023-07-03T18:07:13.677Z,6.67
2023-07-03T18:09:40.199Z,5.45
2023-07-03T18:12:07.147Z,4.47
2023-07-03T18:14:33.803Z,3.30
2023-07-03T18:17:00.240Z,3.03
2023-07-03T18:19:26.701Z,4.10
2023-07-03T18:21:53.217Z,2.50
2023-07-03T18:24:19.740Z,2.47
2023-07-03T18:26:46.253Z,2.30
2023-07-03T18:29:12.684Z,2.22
2023-07-03T18:31:39.409Z,2.13
2023-07-03T18:34:05.998Z,2.33
2023-07-03T18:36:33.779Z,2.25
2023-07-03T18:39:00.557Z,1.90
2023-07-03T18:41:27.190Z,2.45
2023-07-03T18:43:53.640Z,2.50
2023-07-03T18:46:20.150Z,3.35
2023-07-03T18:48:46.766Z,2.30
2023-07-03T18:51:14.859Z,2.28
2023-07-03T18:53:41.628Z,2.47
2023-07-03T18:56:08.186Z,2.60
2023-07-03T18:58:34.625Z,2.22
2023-07-03T19:01:01.137Z,2.33
2023-07-03T19:03:28.605Z,2.30
2023-07-03T19:06:00.278Z,2.50
2023-07-03T19:08:27.360Z,2.60
2023-07-03T19:10:53.812Z,2.47
2023-07-03T19:13:20.565Z,2.45
2023-07-03T19:15:47.299Z,2.40
2023-07-03T19:18:14.909Z,2.80
2023-07-03T19:20:41.734Z,2.60
2023-07-03T19:23:09.003Z,2.97
2023-07-03T19:25:35.443Z,3.00
2023-07-03T19:28:02.487Z,2.80
2023-07-03T19:30:28.986Z,3.28
2023-07-03T19:32:55.429Z,3.10
2023-07-03T19:35:21.846Z,2.75
2023-07-03T19:37:50.182Z,2.70
2023-07-03T19:40:16.727Z,2.65
2023-07-03T19:42:43.446Z,2.05
2023-07-03T19:45:10.557Z,2.20
2023-07-03T19:47:37.633Z,2.42
2023-07-03T19:50:10.589Z,1.85
2023-07-03T19:52:37.831Z,2.00
2023-07-03T19:55:04.601Z,2.00
2023-07-03T19:57:31.528Z,2.23
2023-07-03T19:59:57.959Z,2.25
2023-07-03T20:02:24.577Z,1.85
2023-07-03T20:04:51.608Z,1.98
2023-07-03T20:07:18.120Z,2.45
2023-07-03T20:09:44.773Z,2.30
2023-07-03T20:12:11.306Z,2.00
2023-07-03T20:14:37.816Z,1.55
2023-07-03T20:17:04.894Z,1.48
2023-07-03T20:19:31.572Z,1.80
2023-07-03T20:21:58.240Z,1.57
2023-07-03T20:24:24.952Z,1.70
2023-07-03T20:26:52.870Z,1.90
2023-07-03T20:29:19.977Z,1.88
2023-07-03T20:31:46.596Z,1.80
2023-07-03T20:34:13.062Z,1.90
2023-07-03T20:36:39.531Z,2.30
2023-07-03T20:39:06.297Z,1.90
2023-07-03T20:41:33.172Z,2.10
2023-07-03T20:44:05.193Z,1.90
2023-07-03T20:46:33.118Z,1.80
2023-07-03T20:49:00.901Z,2.10
2023-07-03T20:51:32.815Z,1.80
2023-07-03T20:53:59.978Z,1.70
2023-07-03T20:56:30.010Z,1.83
2023-07-03T20:58:58.868Z,1.70
2023-07-03T21:01:28.448Z,2.10
2023-07-03T21:03:56.220Z,2.13
2023-07-03T21:06:25.309Z,2.30
2023-07-03T21:08:52.404Z,2.00
2023-07-03T21:11:24.743Z,2.40
2023-07-03T21:13:53.428Z,2.40
2023-07-03T21:16:22.831Z,2.47
2023-07-03T21:18:50.174Z,2.40
2023-07-03T21:21:19.152Z,2.50
2023-07-03T21:23:46.179Z,2.73
2023-07-03T21:26:14.867Z,2.92
2023-07-03T21:28:41.814Z,2.85
2023-07-03T21:31:12.709Z,3.03
2023-07-03T21:33:40.295Z,2.28
2023-07-03T21:36:09.203Z,2.50
2023-07-03T21:38:36.582Z,2.60
2023-07-03T21:41:03.408Z,2.55
2023-07-03T21:43:30.257Z,2.03
2023-07-03T21:46:02.299Z,2.03
2023-07-03T21:48:29.180Z,1.70
2023-07-03T21:50:55.859Z,2.00
2023-07-03T21:53:22.363Z,1.70
2023-07-03T21:55:48.974Z,1.80
2023-07-03T21:58:15.456Z,1.73
2023-07-03T22:00:41.942Z,1.90
2023-07-03T22:03:08.461Z,1.70
2023-07-03T22:05:34.927Z,1.88
2023-07-03T22:08:01.387Z,1.70
2023-07-03T22:10:28.001Z,1.88
2023-07-03T22:12:56.342Z,1.83
2023-07-03T22:15:22.797Z,2.03
2023-07-03T22:17:49.302Z,2.03
2023-07-03T22:20:15.910Z,1.90
2023-07-03T22:22:42.789Z,2.00
2023-07-03T22:25:09.582Z,2.10
2023-07-03T22:27:36.063Z,2.10
2023-07-03T22:30:02.724Z,2.00
2023-07-03T22:32:30.672Z,1.95
2023-07-03T22:34:57.263Z,2.53
2023-07-03T22:37:23.737Z,2.33
2023-07-03T22:39:50.287Z,2.40
2023-07-03T22:42:16.748Z,2.20
2023-07-03T22:44:43.330Z,2.00
2023-07-03T22:47:09.901Z,2.15
2023-07-03T22:49:36.406Z,2.00
2023-07-03T22:52:03.657Z,2.15
2023-07-03T22:54:30.190Z,2.50
2023-07-03T22:56:56.619Z,2.00
2023-07-03T22:59:23.047Z,2.15
2023-07-03T23:01:53.127Z,2.30
2023-07-03T23:04:19.972Z,2.20
2023-07-03T23:06:47.030Z,2.10
2023-07-03T23:09:14.240Z,2.40
2023-07-03T23:11:40.819Z,2.40
2023-07-03T23:14:07.267Z,2.40
2023-07-03T23:16:33.701Z,2.28
2023-07-03T23:19:00.551Z,2.83
2023-07-03T23:21:27.020Z,2.50
2023-07-03T23:23:56.689Z,2.60
2023-07-03T23:26:25.684Z,3.40
2023-07-03T23:28:52.382Z,2.70
2023-07-03T23:31:19.145Z,2.58
2023-07-03T23:33:48.916Z,2.65
2023-07-03T23:36:16.090Z,2.80
2023-07-03T23:38:45.679Z,2.40
2023-07-03T23:41:12.660Z,2.70
2023-07-03T23:43:40.610Z,2.63
2023-07-03T23:46:08.804Z,2.80
2023-07-03T23:48:36.217Z,2.65
2023-07-03T23:51:05.337Z,2.60
2023-07-03T23:53:37.545Z,2.80
2023-07-03T23:56:06.958Z,3.05
2023-07-03T23:58:35.228Z,2.70
